Main page
METAR-TAF:

METAR-TAF

Airports :

Lengpui Airport

Aizawl, India

latitude: 23-50-18N, longitude: 92-37-13E, elevation: 405 m

Current weather observation

The report was made 29 minutes ago, at 06:30 UTC
Wind 10 kt from the South/Southeast
Temperature 32°C
Humidity 59%
Pressure 1003 hPa
Visibility: 4000 m
Scattered clouds at a height of 1800 ft
Broken clouds at a height of 10000 ft
haze

METAR: VELP 300630Z 15010KT 4000 HZ SCT018 BKN100 32/23 Q1003 NOSIG

Time: 12:29 (06:59 UTC)

Forecast

The report was made 1 hour and 59 minutes ago, at 05:00 UTC
Forecast valid from 30 at 06 UTC to 30 at 15 UTC
Wind 5 kt from the Southeast
Visibility: 4000 m
Scattered clouds at a height of 1800 ft
Broken clouds at a height of 10000 ft
mist

TAF: VELP 300500Z 3006/3015 14005KT 4000 BR SCT018 BKN100

Weather observations and forecasts of more than 4000 airports (METAR and TAF reports).

The available stations are represented by yellow and red dots on the map.

Hover mouse over dot to see the name of the station.

Then click to see weather observations and forecasts.

To change the map : click on the green buttons with a black cross to zoom in, on the green button with a dash to zoom out, or on the green arrows for adjacent maps.


METAR-TAF: